Terminal Aerodrome Forecast
Issued by NWS

Home | Current Version | Previous Version | Text Only | Print | Product List | Glossary On
Versions: 1 2 3 4 5 6 7 8 9 10 11 12 13 14 15 16 17 18 19 20 21 22 23 24 25
000
FTUS43 KAPX 281100
TAFMBL
TAF
KMBL 281140Z 2812/2912 36009KT P6SM OVC014
     FM281500 35010G18KT P6SM BKN022
     FM281800 32010G17KT P6SM SCT035
     FM290000 28004KT P6SM OVC050
      AMD LTD TO CLD VIS AND WIND=

USA.gov is the U.S. government's official web portal to all federal, state and local government web resources and services.